createdAt,value
2023-05-15T00:20:09.320Z,100820.19
2023-05-15T00:32:27.430Z,100801.59
2023-05-15T00:36:36.519Z,100788.75
2023-05-15T00:40:18.459Z,100799.69
2023-05-15T01:23:36.427Z,100779.59
2023-05-15T01:26:49.648Z,100781.06
2023-05-15T01:30:01.473Z,100787.06
2023-05-15T01:33:52.527Z,100795.91
2023-05-15T01:36:55.122Z,100792.97
2023-05-15T01:42:36.517Z,100784.75
2023-05-15T01:45:10.719Z,100783.34
2023-05-15T01:47:47.946Z,100779.75
2023-05-15T01:50:29.158Z,100782.38
2023-05-15T01:53:25.608Z,100779.41
2023-05-15T01:55:55.830Z,100783.47
2023-05-15T01:58:29.469Z,100784.38
2023-05-15T02:01:01.691Z,100781.91
2023-05-15T02:04:05.658Z,100786.13
2023-05-15T02:07:41.419Z,100786.81
2023-05-15T02:10:57.087Z,100791.69
2023-05-15T02:13:59.252Z,100787.63
2023-05-15T02:16:49.871Z,100781.91
2023-05-15T02:19:41.149Z,100779.97
2023-05-15T02:22:11.966Z,100783.34
2023-05-15T02:24:42.476Z,100777.91
2023-05-15T02:27:23.380Z,100776.75
2023-05-15T02:34:24.680Z,100787.97
2023-05-15T02:37:26.320Z,100788.22
2023-05-15T02:40:05.592Z,100800.75
2023-05-15T02:43:53.558Z,100791.69
2023-05-15T02:46:19.054Z,100793.31
2023-05-15T02:49:14.450Z,100800.88
2023-05-15T02:52:04.215Z,100799.63
2023-05-15T02:55:00.374Z,100803.56
2023-05-15T02:57:53.485Z,100803.84
2023-05-15T03:00:47.709Z,100810.09
2023-05-15T03:03:33.995Z,100815.78
2023-05-15T03:06:06.221Z,100816.34
2023-05-15T03:08:52.577Z,100814.28
2023-05-15T03:11:27.742Z,100819.72
2023-05-15T03:14:00.459Z,100816.81
2023-05-15T03:16:33.678Z,100824.56
2023-05-15T03:19:18.583Z,100824.28
2023-05-15T03:22:00.301Z,100832.56
2023-05-15T03:24:33.908Z,100830.66
2023-05-15T03:27:12.677Z,100836.34
2023-05-15T03:29:45.790Z,100830.09
2023-05-15T03:32:25.403Z,100841.16
2023-05-15T03:35:04.374Z,100834.31
2023-05-15T03:37:44.625Z,100830.84
2023-05-15T03:40:15.134Z,100833.34
2023-05-15T03:42:54.233Z,100840.28
2023-05-15T03:45:26.399Z,100836.56
2023-05-15T03:47:56.492Z,100846.09
2023-05-15T03:50:26.256Z,100849.25
2023-05-15T03:52:55.423Z,100849.94
2023-05-15T03:55:24.725Z,100847.75
2023-05-15T03:57:54.358Z,100851.56
2023-05-15T04:00:23.676Z,100850.63
2023-05-15T04:02:52.900Z,100849.53
2023-05-15T04:05:22.737Z,100850.97
2023-05-15T04:07:51.916Z,100856.47
2023-05-15T04:10:21.107Z,100849.22
2023-05-15T04:12:50.127Z,100850.84
2023-05-15T04:15:24.792Z,100854.22
2023-05-15T04:17:55.595Z,100859.75
2023-05-15T04:20:25.715Z,100866.69
2023-05-15T04:22:55.038Z,100863.00
2023-05-15T04:25:25.577Z,100862.41
2023-05-15T04:28:18.905Z,100868.22
2023-05-15T04:31:09.042Z,100863.63
2023-05-15T04:33:42.845Z,100863.75
2023-05-15T04:36:12.393Z,100860.53
2023-05-15T04:38:57.694Z,100868.41
2023-05-15T04:41:27.786Z,100871.31
2023-05-15T04:43:59.786Z,100873.13
2023-05-15T04:47:34.750Z,100873.97
2023-05-15T04:50:10.849Z,100867.69
2023-05-15T04:52:44.286Z,100882.97
2023-05-15T04:55:55.772Z,100884.22
2023-05-15T04:58:27.075Z,100878.44
2023-05-15T05:01:18.581Z,100885.19
2023-05-15T05:04:10.383Z,100883.06
2023-05-15T05:06:40.016Z,100879.31
2023-05-15T05:09:09.369Z,100873.34
2023-05-15T05:11:50.124Z,100874.28
2023-05-15T05:14:22.581Z,100873.91
2023-05-15T05:16:51.703Z,100879.16
2023-05-15T05:19:26.654Z,100878.50
2023-05-15T05:22:02.908Z,100866.94
2023-05-15T05:24:38.635Z,100869.53
2023-05-15T05:27:08.743Z,100874.53
2023-05-15T05:29:38.171Z,100872.47
2023-05-15T05:32:20.365Z,100879.00
2023-05-15T05:34:53.293Z,100882.06
2023-05-15T05:37:22.220Z,100879.44
2023-05-15T05:40:03.368Z,100865.22
2023-05-15T05:42:32.981Z,100877.22
2023-05-15T05:45:02.335Z,100872.19
2023-05-15T05:47:31.828Z,100869.53
2023-05-15T05:50:04.009Z,100873.16
2023-05-15T05:52:46.429Z,100867.19
2023-05-15T05:55:24.356Z,100873.47
2023-05-15T05:58:03.444Z,100867.47
2023-05-15T06:00:44.188Z,100868.13
2023-05-15T06:03:31.859Z,100862.13
2023-05-15T06:06:05.928Z,100859.28
2023-05-15T06:08:35.434Z,100850.19
2023-05-15T06:11:10.825Z,100856.94
2023-05-15T06:13:50.390Z,100851.44
2023-05-15T06:16:22.841Z,100842.00
2023-05-15T06:18:52.602Z,100848.31
2023-05-15T06:21:26.645Z,100845.00
2023-05-15T06:24:06.166Z,100845.50
2023-05-15T06:26:39.127Z,100843.28
2023-05-15T06:29:24.898Z,100846.41
2023-05-15T06:32:03.694Z,100831.94
2023-05-15T06:34:35.624Z,100845.44
2023-05-15T06:37:05.220Z,100844.66
2023-05-15T06:39:54.654Z,100843.78
2023-05-15T06:42:24.637Z,100840.06
2023-05-15T06:45:06.194Z,100842.41
2023-05-15T06:47:42.020Z,100841.94
2023-05-15T06:50:17.487Z,100845.34
2023-05-15T06:52:54.900Z,100845.06
2023-05-15T06:55:25.051Z,100842.25
2023-05-15T06:58:21.823Z,100842.88
2023-05-15T07:00:59.390Z,100853.22
2023-05-15T07:03:52.181Z,100848.78
2023-05-15T07:06:28.694Z,100851.28
2023-05-15T07:09:08.369Z,100846.28
2023-05-15T07:11:41.207Z,100851.59
2023-05-15T07:14:14.661Z,100853.59
2023-05-15T07:16:49.916Z,100843.56
2023-05-15T07:19:21.991Z,100844.25
2023-05-15T07:21:51.156Z,100845.84
2023-05-15T07:24:28.861Z,100836.06
2023-05-15T07:27:01.120Z,100844.25
2023-05-15T07:29:30.540Z,100835.44
2023-05-15T07:32:02.487Z,100826.94
2023-05-15T07:34:34.342Z,100832.09
2023-05-15T07:37:03.817Z,100835.66
2023-05-15T07:39:36.849Z,100838.41
2023-05-15T07:42:10.498Z,100841.25
2023-05-15T07:44:45.020Z,100840.66
2023-05-15T07:47:22.462Z,100841.31
2023-05-15T07:49:51.647Z,100845.38
2023-05-15T07:52:26.744Z,100838.13
2023-05-15T07:55:05.245Z,100841.94
2023-05-15T07:57:39.327Z,100840.50
2023-05-15T08:00:13.079Z,100841.41
2023-05-15T08:02:50.192Z,100843.81
2023-05-15T08:05:28.290Z,100839.94
2023-05-15T08:07:58.534Z,100829.84
2023-05-15T08:10:42.355Z,100835.88
2023-05-15T08:13:44.074Z,100848.63
2023-05-15T08:16:17.242Z,100840.56
2023-05-15T08:18:54.412Z,100855.44
2023-05-15T08:21:26.587Z,100844.00
2023-05-15T08:24:08.838Z,100847.50
2023-05-15T08:26:47.104Z,100846.03
2023-05-15T08:29:17.646Z,100833.97
2023-05-15T08:31:46.805Z,100843.06
2023-05-15T08:34:19.280Z,100847.22
2023-05-15T08:36:54.282Z,100844.72
2023-05-15T08:39:38.240Z,100839.78
2023-05-15T08:42:23.058Z,100842.38
2023-05-15T08:44:59.064Z,100833.25
2023-05-15T08:47:41.473Z,100838.31
2023-05-15T08:50:18.888Z,100825.13
2023-05-15T08:52:55.360Z,100824.13
2023-05-15T08:55:25.476Z,100832.31
2023-05-15T08:57:55.718Z,100835.78
2023-05-15T09:00:25.009Z,100828.72
2023-05-15T09:02:59.473Z,100834.13
2023-05-15T09:05:30.747Z,100820.38
2023-05-15T09:08:13.527Z,100829.94
2023-05-15T09:10:46.584Z,100834.06
2023-05-15T09:13:18.843Z,100822.00
2023-05-15T09:15:51.633Z,100825.50
2023-05-15T09:18:24.236Z,100827.00
2023-05-15T09:21:26.465Z,100810.97
2023-05-15T09:23:57.946Z,100819.19
2023-05-15T09:26:27.281Z,100822.75
2023-05-15T09:29:05.755Z,100825.41
2023-05-15T09:32:07.874Z,100827.03
2023-05-15T09:34:42.659Z,100814.25
2023-05-15T09:37:28.767Z,100817.25
2023-05-15T09:40:15.346Z,100817.31
2023-05-15T09:42:55.724Z,100813.16
2023-05-15T09:45:30.697Z,100810.28
2023-05-15T09:48:05.639Z,100800.59
2023-05-15T09:50:39.841Z,100804.31
2023-05-15T09:53:14.062Z,100795.31
2023-05-15T09:55:53.694Z,100804.31
2023-05-15T09:58:28.699Z,100804.81
2023-05-15T10:01:02.347Z,100800.53
2023-05-15T10:03:33.792Z,100804.31
2023-05-15T10:06:06.111Z,100795.09
2023-05-15T10:08:42.158Z,100799.84
2023-05-15T10:11:14.529Z,100805.91
2023-05-15T10:13:45.840Z,100800.78
2023-05-15T10:16:17.908Z,100791.13
2023-05-15T10:18:49.650Z,100788.63
2023-05-15T10:21:23.931Z,100783.72
2023-05-15T10:23:58.342Z,100796.66
2023-05-15T10:26:42.817Z,100798.34
2023-05-15T10:29:14.386Z,100795.53
2023-05-15T10:31:44.707Z,100791.59
2023-05-15T10:34:15.158Z,100791.69
2023-05-15T10:36:56.408Z,100792.53
2023-05-15T10:39:30.444Z,100793.22
2023-05-15T10:42:01.443Z,100800.06
2023-05-15T10:44:35.811Z,100800.06
2023-05-15T10:47:06.932Z,100804.66
2023-05-15T10:49:39.331Z,100802.03
2023-05-15T10:52:10.192Z,100802.38
2023-05-15T10:54:48.323Z,100798.44
2023-05-15T10:57:25.610Z,100810.19
2023-05-15T11:00:07.364Z,100811.41
2023-05-15T11:02:45.812Z,100803.00
2023-05-15T11:05:25.550Z,100804.03
2023-05-15T11:08:32.998Z,100803.25
2023-05-15T11:11:08.274Z,100810.47
2023-05-15T11:14:10.802Z,100807.81
2023-05-15T11:17:05.189Z,100812.28
2023-05-15T11:19:39.756Z,100818.13
2023-05-15T11:22:22.120Z,100808.66
2023-05-15T11:25:17.457Z,100804.59
2023-05-15T11:27:47.798Z,100804.81
2023-05-15T11:30:30.023Z,100807.75
2023-05-15T11:33:02.864Z,100797.69
2023-05-15T11:35:37.189Z,100801.91
2023-05-15T11:38:14.005Z,100804.44
2023-05-15T11:41:05.522Z,100800.13
2023-05-15T11:43:42.252Z,100803.56
2023-05-15T11:46:18.848Z,100808.63
2023-05-15T11:48:48.880Z,100802.56
2023-05-15T11:51:23.566Z,100813.44
2023-05-15T11:53:56.804Z,100813.06
2023-05-15T11:56:32.618Z,100812.63
2023-05-15T11:59:03.240Z,100808.84
2023-05-15T12:01:48.359Z,100816.88
2023-05-15T12:04:19.260Z,100818.34
2023-05-15T12:06:52.103Z,100815.50
2023-05-15T12:09:28.247Z,100812.97
2023-05-15T12:11:57.564Z,100803.91
2023-05-15T12:14:40.824Z,100806.84
2023-05-15T12:17:10.010Z,100813.75
2023-05-15T12:19:40.299Z,100817.13
2023-05-15T12:22:11.256Z,100804.16
2023-05-15T12:24:40.660Z,100805.06
2023-05-15T12:27:20.047Z,100814.69
2023-05-15T12:29:54.361Z,100819.22
2023-05-15T12:32:25.632Z,100817.72
2023-05-15T12:35:01.227Z,100819.94
2023-05-15T12:37:36.522Z,100826.66
2023-05-15T12:40:16.245Z,100833.72
2023-05-15T12:42:50.441Z,100837.69
2023-05-15T12:45:21.305Z,100830.88
2023-05-15T12:47:55.714Z,100846.03
2023-05-15T12:50:46.510Z,100842.09
2023-05-15T12:53:17.174Z,100839.38
2023-05-15T12:55:47.942Z,100833.41
2023-05-15T12:58:42.268Z,100835.50
2023-05-15T13:01:14.533Z,100833.06
2023-05-15T13:03:50.449Z,100842.06
2023-05-15T13:06:20.028Z,100838.00
2023-05-15T13:08:52.171Z,100844.38
2023-05-15T13:11:21.668Z,100835.50
2023-05-15T13:13:51.561Z,100835.28
2023-05-15T13:16:22.710Z,100842.91
2023-05-15T13:18:52.375Z,100843.34
2023-05-15T13:21:23.806Z,100842.78
2023-05-15T13:23:53.794Z,100844.09
2023-05-15T13:26:23.420Z,100852.13
2023-05-15T13:28:55.372Z,100851.44
2023-05-15T13:31:24.830Z,100864.06
2023-05-15T13:33:53.974Z,100864.91
2023-05-15T13:36:27.045Z,100868.84
2023-05-15T13:39:09.086Z,100870.88
2023-05-15T13:41:38.647Z,100861.84
2023-05-15T13:44:08.982Z,100854.19
2023-05-15T13:46:50.005Z,100855.34
2023-05-15T13:49:39.049Z,100853.91
2023-05-15T13:52:08.338Z,100853.19
2023-05-15T13:54:45.001Z,100849.88
2023-05-15T13:57:17.295Z,100845.66
2023-05-15T13:59:46.340Z,100840.13
2023-05-15T14:02:15.527Z,100847.88
2023-05-15T14:04:45.184Z,100852.09
2023-05-15T14:07:14.167Z,100845.25
2023-05-15T14:09:43.067Z,100853.50
2023-05-15T14:12:12.143Z,100859.44
2023-05-15T14:14:41.070Z,100864.84
2023-05-15T14:17:10.051Z,100867.13
2023-05-15T14:19:38.912Z,100852.44
2023-05-15T14:22:07.911Z,100863.34
2023-05-15T14:24:36.839Z,100855.78
2023-05-15T14:27:06.099Z,100856.84
2023-05-15T14:29:35.270Z,100852.69
2023-05-15T14:32:04.216Z,100859.16
2023-05-15T14:34:33.188Z,100858.53
2023-05-15T14:37:02.294Z,100852.59
2023-05-15T14:39:31.543Z,100848.88
2023-05-15T14:42:00.514Z,100852.47
2023-05-15T14:44:29.836Z,100852.47
2023-05-15T14:47:13.571Z,100856.06
2023-05-15T14:49:42.547Z,100864.28
2023-05-15T14:52:13.096Z,100874.41
2023-05-15T14:54:42.688Z,100872.97
2023-05-15T14:57:11.679Z,100867.94
2023-05-15T14:59:40.669Z,100864.91
2023-05-15T15:02:09.770Z,100867.50
2023-05-15T15:04:38.787Z,100870.31
2023-05-15T15:07:14.675Z,100867.56
2023-05-15T15:09:43.747Z,100874.34
2023-05-15T15:12:12.664Z,100882.59
2023-05-15T15:14:41.841Z,100879.78
2023-05-15T15:17:10.731Z,100879.44
2023-05-15T15:19:39.853Z,100880.63
2023-05-15T15:22:08.726Z,100883.41
2023-05-15T15:24:37.687Z,100880.16
2023-05-15T15:27:07.760Z,100871.56
2023-05-15T15:29:36.869Z,100871.22
2023-05-15T15:32:06.134Z,100874.75
2023-05-15T15:34:35.153Z,100867.53
2023-05-15T15:37:04.152Z,100865.59
2023-05-15T15:39:34.050Z,100864.91
2023-05-15T15:42:05.122Z,100864.69
2023-05-15T15:44:35.679Z,100860.13
2023-05-15T15:47:05.414Z,100862.53
2023-05-15T15:49:34.479Z,100854.03
2023-05-15T15:52:03.427Z,100854.72
2023-05-15T15:54:34.075Z,100855.63
2023-05-15T15:57:05.535Z,100855.91
2023-05-15T15:59:34.549Z,100850.09
2023-05-15T16:02:07.008Z,100857.25
2023-05-15T16:04:40.050Z,100850.34
2023-05-15T16:07:09.147Z,100861.50
2023-05-15T16:09:38.038Z,100857.66
2023-05-15T16:12:07.204Z,100861.34
2023-05-15T16:14:36.091Z,100855.09
2023-05-15T16:17:05.412Z,100865.44
2023-05-15T16:19:37.121Z,100872.03
2023-05-15T16:22:06.489Z,100867.44
2023-05-15T16:24:38.112Z,100868.25
2023-05-15T16:27:07.289Z,100860.81
2023-05-15T16:29:36.279Z,100865.22
2023-05-15T16:32:06.227Z,100863.44
2023-05-15T16:34:35.185Z,100860.03
2023-05-15T16:37:04.267Z,100864.13
2023-05-15T16:39:40.069Z,100863.31
2023-05-15T16:42:09.621Z,100861.28
2023-05-15T16:44:38.639Z,100861.88
2023-05-15T16:47:07.909Z,100856.66
2023-05-15T16:49:36.884Z,100851.28
2023-05-15T16:52:06.032Z,100847.97
2023-05-15T16:54:35.019Z,100851.44
2023-05-15T16:57:04.376Z,100848.19
2023-05-15T16:59:33.667Z,100845.16
2023-05-15T17:02:02.592Z,100848.47
2023-05-15T17:04:33.014Z,100846.75
2023-05-15T17:07:02.684Z,100834.28
2023-05-15T17:09:31.677Z,100838.31
2023-05-15T17:12:00.890Z,100842.88
2023-05-15T17:14:30.695Z,100839.97
2023-05-15T17:17:02.928Z,100840.28
2023-05-15T17:19:35.420Z,100835.25
2023-05-15T17:22:05.995Z,100834.78
2023-05-15T17:24:49.469Z,100831.63
2023-05-15T17:27:21.319Z,100831.44
2023-05-15T17:29:52.071Z,100832.16
2023-05-15T17:32:21.559Z,100838.53
2023-05-15T17:34:53.534Z,100837.75
2023-05-15T17:37:23.534Z,100830.81
2023-05-15T17:39:54.092Z,100829.81
2023-05-15T17:42:25.896Z,100833.25
2023-05-15T17:44:57.174Z,100822.81
2023-05-15T17:47:29.675Z,100826.00
2023-05-15T17:49:59.849Z,100822.31
2023-05-15T17:52:29.719Z,100820.94
2023-05-15T17:54:58.846Z,100824.47
2023-05-15T17:57:28.448Z,100819.47
2023-05-15T17:59:57.679Z,100812.91
2023-05-15T18:02:29.591Z,100811.47
2023-05-15T18:04:58.744Z,100806.59
2023-05-15T18:07:31.942Z,100808.09
2023-05-15T18:10:04.068Z,100813.72
2023-05-15T18:12:34.135Z,100808.81
2023-05-15T18:15:03.420Z,100807.94
2023-05-15T18:17:33.750Z,100803.53
2023-05-15T18:20:06.530Z,100801.53
2023-05-15T18:22:35.678Z,100798.03
2023-05-15T18:25:08.093Z,100804.72
2023-05-15T18:27:37.870Z,100797.94
2023-05-15T18:30:24.989Z,100801.63
2023-05-15T18:32:54.313Z,100796.41
2023-05-15T18:35:29.011Z,100799.59
2023-05-15T18:38:05.054Z,100794.53
2023-05-15T18:40:34.395Z,100795.91
2023-05-15T18:43:06.499Z,100795.81
2023-05-15T18:45:35.746Z,100791.41
2023-05-15T18:48:05.126Z,100794.19
2023-05-15T18:50:34.354Z,100790.91
2023-05-15T18:53:11.288Z,100792.66
2023-05-15T18:55:41.427Z,100791.16
2023-05-15T18:58:11.399Z,100788.16
2023-05-15T19:00:42.561Z,100785.66
2023-05-15T19:03:12.026Z,100791.06
2023-05-15T19:05:47.183Z,100784.50
2023-05-15T19:08:19.413Z,100782.78
2023-05-15T19:10:52.180Z,100787.22
2023-05-15T19:13:21.540Z,100779.69
2023-05-15T19:15:54.689Z,100784.13
2023-05-15T19:18:24.445Z,100783.31
2023-05-15T19:20:55.100Z,100780.69
2023-05-15T19:23:25.425Z,100781.44
2023-05-15T19:25:54.344Z,100773.31
2023-05-15T19:28:23.275Z,100782.66
2023-05-15T19:30:52.341Z,100776.19
2023-05-15T19:33:25.406Z,100781.22
2023-05-15T19:35:57.955Z,100775.25
2023-05-15T19:38:43.418Z,100777.75
2023-05-15T19:41:43.834Z,100771.16
2023-05-15T19:44:22.435Z,100766.59
2023-05-15T19:46:54.806Z,100773.75
2023-05-15T19:49:30.135Z,100763.22
2023-05-15T19:55:30.468Z,100758.59
2023-05-15T19:58:36.366Z,100756.41
2023-05-15T20:01:59.291Z,100758.97
2023-05-15T20:05:11.445Z,100748.94
2023-05-15T20:08:11.384Z,100754.16
2023-05-15T20:11:01.262Z,100753.31
2023-05-15T20:13:57.031Z,100755.94
2023-05-15T20:16:58.412Z,100760.91
2023-05-15T20:20:37.176Z,100747.84
2023-05-15T20:23:32.925Z,100749.44
2023-05-15T20:26:22.569Z,100748.66
2023-05-15T20:28:57.495Z,100750.13
2023-05-15T20:31:49.166Z,100756.84
2023-05-15T20:34:55.629Z,100752.38
2023-05-15T20:38:36.712Z,100755.44
2023-05-15T20:40:46.261Z,100754.66
2023-05-15T20:43:57.293Z,100745.41
2023-05-15T20:46:10.247Z,100748.28
2023-05-15T20:48:39.526Z,100746.44
2023-05-15T20:51:15.196Z,100739.66
2023-05-15T20:53:50.513Z,100747.94
2023-05-15T20:56:32.200Z,100755.16
2023-05-15T20:59:16.346Z,100753.50
2023-05-15T21:04:50.824Z,100744.53
2023-05-15T21:07:55.403Z,100738.16
2023-05-15T21:10:41.347Z,100733.63
2023-05-15T21:13:32.494Z,100740.56
2023-05-15T21:16:11.521Z,100736.94
2023-05-15T21:18:51.977Z,100726.41
2023-05-15T21:21:32.046Z,100732.69
2023-05-15T21:27:27.327Z,100733.38
2023-05-15T21:33:30.978Z,100721.81
2023-05-15T21:36:00.042Z,100728.50
2023-05-15T21:38:30.258Z,100720.66
2023-05-15T21:41:00.368Z,100720.41
2023-05-15T21:43:29.422Z,100714.25
2023-05-15T21:45:58.765Z,100705.78
2023-05-15T21:48:35.657Z,100717.72
2023-05-15T21:51:04.968Z,100711.13
2023-05-15T21:53:34.199Z,100706.66
2023-05-15T21:56:07.149Z,100707.91
2023-05-15T21:58:42.337Z,100701.53
2023-05-15T22:01:20.486Z,100698.41
2023-05-15T22:03:50.394Z,100697.56
2023-05-15T22:06:21.375Z,100685.91
2023-05-15T22:08:53.121Z,100687.25
2023-05-15T22:11:24.242Z,100679.97
2023-05-15T22:14:01.598Z,100691.13
2023-05-15T22:16:36.632Z,100681.69
2023-05-15T22:19:21.464Z,100687.53
2023-05-15T22:22:03.629Z,100679.19
2023-05-15T22:24:35.459Z,100694.25
2023-05-15T22:27:04.964Z,100693.69
2023-05-15T22:29:39.342Z,100695.28
2023-05-15T22:32:09.060Z,100692.06
2023-05-15T22:34:38.489Z,100697.25
2023-05-15T22:37:16.742Z,100692.84
2023-05-15T22:39:53.738Z,100693.19
2023-05-15T22:42:36.084Z,100690.47
2023-05-15T22:45:08.502Z,100694.75
2023-05-15T22:47:37.483Z,100677.69
2023-05-15T22:50:07.013Z,100675.53
2023-05-15T22:52:44.124Z,100673.72
2023-05-15T22:55:18.682Z,100677.06
2023-05-15T22:57:48.015Z,100671.78
2023-05-15T23:00:18.195Z,100674.28
2023-05-15T23:02:47.588Z,100664.81
2023-05-15T23:05:23.184Z,100672.50
2023-05-15T23:08:26.398Z,100663.97
2023-05-15T23:10:54.244Z,100667.41
2023-05-15T23:13:51.336Z,100668.03
2023-05-15T23:16:26.649Z,100669.03
2023-05-15T23:19:26.388Z,100661.81
2023-05-15T23:22:04.547Z,100659.66
2023-05-15T23:24:42.486Z,100665.44
2023-05-15T23:30:15.421Z,100664.16
2023-05-15T23:32:47.456Z,100653.16
2023-05-15T23:35:16.846Z,100655.66
2023-05-15T23:37:55.587Z,100657.78
2023-05-15T23:40:37.140Z,100646.34
2023-05-15T23:43:27.423Z,100645.56
2023-05-15T23:45:59.350Z,100643.78
2023-05-15T23:48:38.260Z,100646.16
2023-05-15T23:51:10.935Z,100643.38
2023-05-15T23:53:44.124Z,100636.09
2023-05-15T23:56:13.618Z,100633.91
2023-05-15T23:58:44.818Z,100615.13
